SBOSBO NAS / MYNN
Speedbird OnlineSpeedbird Online NAS / MYNN

Lynden Pindling International Airport
03:53 26°C

Location Nassau, Bahamas
Latitude: 25.0389995575
Longitude: -77.46620178219999
Web Airport Website | Wikipedia
Altitude 5 Meter / 16 Feet
Distance 7,017 KM / 4,360 Miles
from London.
Time Zone UTC -4 hours (America/Nassau)
Codes IATA: NAS
ICAO: MYNN
Currency £1 equals 0.00
Runways
RunwayLength (m)Surface
102522Asphalt
143460Asphalt
282522Asphalt
323460Asphalt
Radio
TypeDescriptionFrequency
APPAPP121
ATISATIS118.7
CLDCLNC DEL118.3
CTAFCTAF122.95
GNDGND121.7
RDORDO128
TWRTWR119.5
UNICUNICOM123
Live ATC
METAR MYNN 060700Z 07006KT 040V100 9999 FEW025 26/22 A2998
TAF MYNN 052130Z 0600/0624 02005KT 9999 VCSH SCT022 BECMG 0612/0614 03010KT PROB30 TEMPO 0618/0624 9000 SHRA BKN020
Weather As Of 06 Oct 2022 03:53
Description Few clouds
Wind 11 km/h from East (70°)
Cloud Cover 20%
Precipitation Rain: none, Snow: none
Sunrise 07:03
Sunset 18:51
Lounges The Lignum Club , Main Terminal
Rotations During the last 90 days there were
50 flights from LHR
46 flights from GCM
49 flights to GCM
48 flights to LHR


© 2017-2022 Speedbird Online